sensor_id;sensor_type;location;lat;lon;timestamp;pressure;altitude;pressure_sealevel;temperature;humidity
21545;BME280;10933;50.754;11.508;2022-07-23T00:00:04;99603.84;;;18.14;100.00
21545;BME280;10933;50.754;11.508;2022-07-23T00:02:31;99612.78;;;18.34;100.00
21545;BME280;10933;50.754;11.508;2022-07-23T00:04:56;99620.28;;;18.42;100.00
21545;BME280;10933;50.754;11.508;2022-07-23T00:07:22;99617.66;;;18.37;100.00
21545;BME280;10933;50.754;11.508;2022-07-23T00:09:48;99617.66;;;18.37;100.00
21545;BME280;10933;50.754;11.508;2022-07-23T00:12:14;99614.91;;;18.37;100.00
21545;BME280;10933;50.754;11.508;2022-07-23T00:14:39;99617.78;;;18.45;100.00
21545;BME280;10933;50.754;11.508;2022-07-23T00:17:05;99616.47;;;18.43;100.00
21545;BME280;10933;50.754;11.508;2022-07-23T00:19:31;99611.19;;;18.33;100.00
21545;BME280;10933;50.754;11.508;2022-07-23T00:21:57;99605.47;;;18.15;100.00
21545;BME280;10933;50.754;11.508;2022-07-23T00:24:23;99606.94;;;17.75;100.00
21545;BME280;10933;50.754;11.508;2022-07-23T00:26:48;99603.09;;;17.57;100.00
21545;BME280;10933;50.754;11.508;2022-07-23T00:29:14;99603.47;;;17.51;100.00
21545;BME280;10933;50.754;11.508;2022-07-23T00:31:40;99597.66;;;17.57;100.00
21545;BME280;10933;50.754;11.508;2022-07-23T00:34:06;99587.47;;;17.63;100.00
21545;BME280;10933;50.754;11.508;2022-07-23T00:36:32;99589.56;;;17.71;100.00
21545;BME280;10933;50.754;11.508;2022-07-23T00:38:58;99589.75;;;17.75;100.00
21545;BME280;10933;50.754;11.508;2022-07-23T00:41:24;99591.38;;;17.76;100.00
21545;BME280;10933;50.754;11.508;2022-07-23T00:43:50;99580.25;;;17.72;100.00
21545;BME280;10933;50.754;11.508;2022-07-23T00:46:22;99583.44;;;17.79;100.00
21545;BME280;10933;50.754;11.508;2022-07-23T00:48:48;99583.34;;;17.84;100.00
21545;BME280;10933;50.754;11.508;2022-07-23T00:51:17;99565.16;;;17.80;100.00
21545;BME280;10933;50.754;11.508;2022-07-23T00:53:44;99569.69;;;17.65;100.00
21545;BME280;10933;50.754;11.508;2022-07-23T00:56:11;99551.88;;;17.54;100.00
21545;BME280;10933;50.754;11.508;2022-07-23T00:58:39;99552.28;;;17.61;100.00
21545;BME280;10933;50.754;11.508;2022-07-23T01:01:08;99549.06;;;17.59;100.00
21545;BME280;10933;50.754;11.508;2022-07-23T01:03:34;99546.09;;;17.75;100.00
21545;BME280;10933;50.754;11.508;2022-07-23T01:06:00;99554.03;;;17.90;100.00
21545;BME280;10933;50.754;11.508;2022-07-23T01:08:26;99557.94;;;18.16;100.00
21545;BME280;10933;50.754;11.508;2022-07-23T01:10:52;99558.88;;;18.26;100.00
21545;BME280;10933;50.754;11.508;2022-07-23T01:13:18;99552.53;;;18.30;100.00
21545;BME280;10933;50.754;11.508;2022-07-23T01:15:44;99560.59;;;18.35;100.00
21545;BME280;10933;50.754;11.508;2022-07-23T01:18:09;99559.38;;;18.28;100.00
21545;BME280;10933;50.754;11.508;2022-07-23T01:20:36;99553.78;;;18.05;100.00
21545;BME280;10933;50.754;11.508;2022-07-23T01:23:02;99539.53;;;18.08;100.00
21545;BME280;10933;50.754;11.508;2022-07-23T01:25:28;99531.84;;;18.10;100.00
21545;BME280;10933;50.754;11.508;2022-07-23T01:27:54;99525.94;;;17.89;100.00
21545;BME280;10933;50.754;11.508;2022-07-23T01:30:20;99526.41;;;17.78;100.00
21545;BME280;10933;50.754;11.508;2022-07-23T01:32:46;99532.03;;;18.00;100.00
21545;BME280;10933;50.754;11.508;2022-07-23T01:35:12;99524.88;;;18.04;100.00
21545;BME280;10933;50.754;11.508;2022-07-23T01:37:38;99525.56;;;17.96;100.00
21545;BME280;10933;50.754;11.508;2022-07-23T01:40:05;99526.16;;;17.93;100.00
21545;BME280;10933;50.754;11.508;2022-07-23T01:42:31;99522.09;;;17.90;100.00
21545;BME280;10933;50.754;11.508;2022-07-23T01:44:57;99533.41;;;17.84;100.00
21545;BME280;10933;50.754;11.508;2022-07-23T01:47:23;99528.34;;;17.91;100.00
21545;BME280;10933;50.754;11.508;2022-07-23T01:49:49;99523.75;;;17.91;100.00
21545;BME280;10933;50.754;11.508;2022-07-23T01:52:15;99521.03;;;18.05;100.00
21545;BME280;10933;50.754;11.508;2022-07-23T01:54:42;99529.22;;;18.05;100.00
21545;BME280;10933;50.754;11.508;2022-07-23T01:57:08;99531.97;;;18.05;100.00
21545;BME280;10933;50.754;11.508;2022-07-23T01:59:34;99529.72;;;18.07;100.00
21545;BME280;10933;50.754;11.508;2022-07-23T02:02:00;99546.09;;;18.07;100.00
21545;BME280;10933;50.754;11.508;2022-07-23T02:04:26;99550.66;;;18.12;100.00
21545;BME280;10933;50.754;11.508;2022-07-23T02:06:53;99553.31;;;18.17;100.00
21545;BME280;10933;50.754;11.508;2022-07-23T02:09:19;99544.06;;;17.99;100.00
21545;BME280;10933;50.754;11.508;2022-07-23T02:11:45;99533.34;;;18.03;100.00
21545;BME280;10933;50.754;11.508;2022-07-23T02:14:11;99536.94;;;17.84;100.00
21545;BME280;10933;50.754;11.508;2022-07-23T02:16:36;99535.19;;;17.75;100.00
21545;BME280;10933;50.754;11.508;2022-07-23T02:19:04;99536.94;;;17.65;100.00
21545;BME280;10933;50.754;11.508;2022-07-23T02:21:30;99539.94;;;17.50;100.00
21545;BME280;10933;50.754;11.508;2022-07-23T02:23:56;99547.81;;;17.52;100.00
21545;BME280;10933;50.754;11.508;2022-07-23T02:26:21;99547.75;;;17.57;100.00
21545;BME280;10933;50.754;11.508;2022-07-23T02:28:47;99543.75;;;17.49;100.00
21545;BME280;10933;50.754;11.508;2022-07-23T02:31:13;99557.34;;;17.54;100.00
21545;BME280;10933;50.754;11.508;2022-07-23T02:33:38;99558.63;;;17.76;100.00
21545;BME280;10933;50.754;11.508;2022-07-23T02:36:04;99547.44;;;17.58;100.00
21545;BME280;10933;50.754;11.508;2022-07-23T02:38:30;99541.63;;;17.46;100.00
21545;BME280;10933;50.754;11.508;2022-07-23T02:40:56;99531.84;;;17.45;100.00
21545;BME280;10933;50.754;11.508;2022-07-23T02:43:22;99540.00;;;17.45;100.00
21545;BME280;10933;50.754;11.508;2022-07-23T02:45:47;99528.09;;;17.41;100.00
21545;BME280;10933;50.754;11.508;2022-07-23T02:48:13;99529.16;;;17.40;100.00
21545;BME280;10933;50.754;11.508;2022-07-23T02:50:39;99525.63;;;17.40;100.00
21545;BME280;10933;50.754;11.508;2022-07-23T02:53:05;99527.19;;;17.46;100.00
21545;BME280;10933;50.754;11.508;2022-07-23T02:55:31;99532.44;;;17.42;100.00
21545;BME280;10933;50.754;11.508;2022-07-23T02:57:57;99528.16;;;17.36;100.00
21545;BME280;10933;50.754;11.508;2022-07-23T03:00:23;99519.09;;;17.41;100.00
21545;BME280;10933;50.754;11.508;2022-07-23T03:02:49;99511.78;;;17.36;100.00
21545;BME280;10933;50.754;11.508;2022-07-23T03:05:15;99519.97;;;17.36;100.00
21545;BME280;10933;50.754;11.508;2022-07-23T03:07:40;99523.50;;;17.55;100.00
21545;BME280;10933;50.754;11.508;2022-07-23T03:10:06;99519.34;;;17.58;100.00
21545;BME280;10933;50.754;11.508;2022-07-23T03:12:32;99530.34;;;17.53;100.00
21545;BME280;10933;50.754;11.508;2022-07-23T03:14:58;99531.03;;;17.45;100.00
21545;BME280;10933;50.754;11.508;2022-07-23T03:17:24;99567.44;;;17.54;100.00
21545;BME280;10933;50.754;11.508;2022-07-23T03:19:49;99598.75;;;17.56;100.00
21545;BME280;10933;50.754;11.508;2022-07-23T03:22:15;99605.84;;;17.76;100.00
21545;BME280;10933;50.754;11.508;2022-07-23T03:24:41;99587.25;;;17.59;100.00
21545;BME280;10933;50.754;11.508;2022-07-23T03:27:23;99579.72;;;17.51;100.00
21545;BME280;10933;50.754;11.508;2022-07-23T03:29:52;99575.47;;;17.45;100.00
21545;BME280;10933;50.754;11.508;2022-07-23T03:32:18;99573.16;;;17.52;100.00
21545;BME280;10933;50.754;11.508;2022-07-23T03:34:44;99570.44;;;17.52;100.00
21545;BME280;10933;50.754;11.508;2022-07-23T03:37:09;99558.53;;;17.29;100.00
21545;BME280;10933;50.754;11.508;2022-07-23T03:39:35;99559.84;;;17.32;100.00
21545;BME280;10933;50.754;11.508;2022-07-23T03:42:01;99574.28;;;17.51;100.00
21545;BME280;10933;50.754;11.508;2022-07-23T03:44:27;99566.31;;;17.36;100.00
21545;BME280;10933;50.754;11.508;2022-07-23T03:46:53;99560.44;;;17.29;100.00
21545;BME280;10933;50.754;11.508;2022-07-23T03:49:19;99566.03;;;17.19;100.00
21545;BME280;10933;50.754;11.508;2022-07-23T03:51:44;99572.31;;;17.19;100.00
21545;BME280;10933;50.754;11.508;2022-07-23T03:54:10;99562.94;;;17.25;100.00
21545;BME280;10933;50.754;11.508;2022-07-23T03:56:36;99552.03;;;17.06;100.00
21545;BME280;10933;50.754;11.508;2022-07-23T03:59:02;99565.50;;;16.98;100.00
21545;BME280;10933;50.754;11.508;2022-07-23T04:01:28;99565.56;;;17.12;100.00
21545;BME280;10933;50.754;11.508;2022-07-23T04:03:53;99577.91;;;17.28;100.00
21545;BME280;10933;50.754;11.508;2022-07-23T04:06:19;99584.75;;;17.06;100.00
21545;BME280;10933;50.754;11.508;2022-07-23T04:08:45;99594.78;;;17.30;100.00
21545;BME280;10933;50.754;11.508;2022-07-23T04:11:11;99607.53;;;17.53;100.00
21545;BME280;10933;50.754;11.508;2022-07-23T04:13:37;99623.44;;;17.65;100.00
21545;BME280;10933;50.754;11.508;2022-07-23T04:16:03;99623.50;;;17.22;100.00
21545;BME280;10933;50.754;11.508;2022-07-23T04:18:29;99604.91;;;17.05;100.00
21545;BME280;10933;50.754;11.508;2022-07-23T04:20:55;99605.50;;;17.02;100.00
21545;BME280;10933;50.754;11.508;2022-07-23T04:23:21;99608.88;;;17.13;100.00
21545;BME280;10933;50.754;11.508;2022-07-23T04:25:47;99599.88;;;16.94;100.00
21545;BME280;10933;50.754;11.508;2022-07-23T04:28:13;99593.13;;;16.91;100.00
21545;BME280;10933;50.754;11.508;2022-07-23T04:30:39;99582.78;;;16.88;100.00
21545;BME280;10933;50.754;11.508;2022-07-23T04:33:04;99581.75;;;16.84;100.00
21545;BME280;10933;50.754;11.508;2022-07-23T04:35:33;99583.38;;;16.85;100.00
21545;BME280;10933;50.754;11.508;2022-07-23T04:37:59;99570.41;;;16.77;100.00
21545;BME280;10933;50.754;11.508;2022-07-23T04:40:26;99556.50;;;16.79;100.00
21545;BME280;10933;50.754;11.508;2022-07-23T04:42:52;99555.00;;;16.86;100.00
21545;BME280;10933;50.754;11.508;2022-07-23T04:45:18;99561.31;;;17.05;100.00
21545;BME280;10933;50.754;11.508;2022-07-23T04:47:43;99561.81;;;17.08;100.00
21545;BME280;10933;50.754;11.508;2022-07-23T04:50:09;99560.88;;;17.17;100.00
21545;BME280;10933;50.754;11.508;2022-07-23T04:52:35;99571.19;;;17.20;100.00
21545;BME280;10933;50.754;11.508;2022-07-23T04:55:01;99586.00;;;17.52;100.00
21545;BME280;10933;50.754;11.508;2022-07-23T04:57:27;99607.19;;;18.11;100.00
21545;BME280;10933;50.754;11.508;2022-07-23T04:59:53;99611.81;;;18.57;100.00
21545;BME280;10933;50.754;11.508;2022-07-23T05:02:18;99571.78;;;17.74;100.00
21545;BME280;10933;50.754;11.508;2022-07-23T05:04:44;99553.94;;;17.06;100.00
21545;BME280;10933;50.754;11.508;2022-07-23T05:07:11;99563.66;;;17.12;100.00
21545;BME280;10933;50.754;11.508;2022-07-23T05:09:37;99573.75;;;17.68;100.00
21545;BME280;10933;50.754;11.508;2022-07-23T05:12:03;99576.88;;;17.43;100.00
21545;BME280;10933;50.754;11.508;2022-07-23T05:14:29;99595.28;;;17.88;100.00
21545;BME280;10933;50.754;11.508;2022-07-23T05:16:54;99582.69;;;17.74;100.00
21545;BME280;10933;50.754;11.508;2022-07-23T05:19:20;99586.75;;;17.57;100.00
21545;BME280;10933;50.754;11.508;2022-07-23T05:21:46;99586.00;;;18.03;100.00
21545;BME280;10933;50.754;11.508;2022-07-23T05:24:12;99590.53;;;18.40;100.00
21545;BME280;10933;50.754;11.508;2022-07-23T05:26:37;99602.09;;;18.51;100.00
21545;BME280;10933;50.754;11.508;2022-07-23T05:29:03;99600.22;;;17.68;100.00
21545;BME280;10933;50.754;11.508;2022-07-23T05:31:29;99606.13;;;17.75;100.00
21545;BME280;10933;50.754;11.508;2022-07-23T05:33:55;99600.78;;;17.64;100.00
21545;BME280;10933;50.754;11.508;2022-07-23T05:36:20;99610.09;;;17.63;100.00
21545;BME280;10933;50.754;11.508;2022-07-23T05:38:46;99596.03;;;17.56;100.00
21545;BME280;10933;50.754;11.508;2022-07-23T05:41:12;99609.66;;;17.56;100.00
21545;BME280;10933;50.754;11.508;2022-07-23T05:43:38;99613.41;;;17.98;100.00
21545;BME280;10933;50.754;11.508;2022-07-23T05:46:03;99601.25;;;18.23;100.00
21545;BME280;10933;50.754;11.508;2022-07-23T05:48:29;99612.03;;;17.82;100.00
21545;BME280;10933;50.754;11.508;2022-07-23T05:50:55;99614.78;;;17.82;100.00
21545;BME280;10933;50.754;11.508;2022-07-23T05:53:21;99613.16;;;17.81;100.00
21545;BME280;10933;50.754;11.508;2022-07-23T05:55:46;99602.59;;;17.55;100.00
21545;BME280;10933;50.754;11.508;2022-07-23T05:58:12;99617.34;;;17.54;100.00
21545;BME280;10933;50.754;11.508;2022-07-23T06:00:38;99607.25;;;17.74;100.00
21545;BME280;10933;50.754;11.508;2022-07-23T06:03:04;99616.88;;;17.85;100.00
21545;BME280;10933;50.754;11.508;2022-07-23T06:05:30;99615.19;;;17.89;100.00
21545;BME280;10933;50.754;11.508;2022-07-23T06:07:55;99609.91;;;18.11;100.00
21545;BME280;10933;50.754;11.508;2022-07-23T06:10:21;99620.19;;;18.01;100.00
21545;BME280;10933;50.754;11.508;2022-07-23T06:12:47;99616.59;;;18.19;100.00
21545;BME280;10933;50.754;11.508;2022-07-23T06:15:13;99610.38;;;18.46;100.00
21545;BME280;10933;50.754;11.508;2022-07-23T06:17:39;99608.31;;;19.48;100.00
21545;BME280;10933;50.754;11.508;2022-07-23T06:20:07;99612.78;;;19.44;100.00
21545;BME280;10933;50.754;11.508;2022-07-23T06:22:35;99603.97;;;19.83;100.00
21545;BME280;10933;50.754;11.508;2022-07-23T06:25:01;99617.69;;;19.05;100.00
21545;BME280;10933;50.754;11.508;2022-07-23T06:27:26;99613.66;;;18.89;100.00
21545;BME280;10933;50.754;11.508;2022-07-23T06:29:53;99619.03;;;19.22;100.00
21545;BME280;10933;50.754;11.508;2022-07-23T06:32:18;99617.25;;;19.39;100.00
21545;BME280;10933;50.754;11.508;2022-07-23T06:34:44;99612.06;;;19.52;100.00
21545;BME280;10933;50.754;11.508;2022-07-23T06:37:10;99602.66;;;18.80;100.00
21545;BME280;10933;50.754;11.508;2022-07-23T06:39:36;99604.78;;;18.84;100.00
21545;BME280;10933;50.754;11.508;2022-07-23T06:42:01;99604.34;;;19.90;100.00
21545;BME280;10933;50.754;11.508;2022-07-23T06:44:27;99603.47;;;20.56;100.00
21545;BME280;10933;50.754;11.508;2022-07-23T06:46:53;99587.66;;;19.78;100.00
21545;BME280;10933;50.754;11.508;2022-07-23T06:49:19;99591.19;;;19.56;100.00
21545;BME280;10933;50.754;11.508;2022-07-23T06:51:45;99592.22;;;19.82;100.00
21545;BME280;10933;50.754;11.508;2022-07-23T06:54:11;99601.84;;;19.57;100.00
21545;BME280;10933;50.754;11.508;2022-07-23T06:56:36;99595.31;;;19.53;100.00
21545;BME280;10933;50.754;11.508;2022-07-23T06:59:02;99598.84;;;19.31;100.00
21545;BME280;10933;50.754;11.508;2022-07-23T07:01:29;99594.34;;;20.08;100.00
21545;BME280;10933;50.754;11.508;2022-07-23T07:03:55;99606.09;;;20.70;100.00
21545;BME280;10933;50.754;11.508;2022-07-23T07:06:21;99610.53;;;20.49;100.00
21545;BME280;10933;50.754;11.508;2022-07-23T07:08:47;99610.41;;;20.32;100.00
21545;BME280;10933;50.754;11.508;2022-07-23T07:11:13;99614.94;;;20.59;100.00
21545;BME280;10933;50.754;11.508;2022-07-23T07:13:39;99622.09;;;20.77;100.00
21545;BME280;10933;50.754;11.508;2022-07-23T07:16:05;99620.75;;;20.66;100.00
21545;BME280;10933;50.754;11.508;2022-07-23T07:18:30;99622.16;;;22.12;100.00
21545;BME280;10933;50.754;11.508;2022-07-23T07:20:59;99639.84;;;23.55;100.00
21545;BME280;10933;50.754;11.508;2022-07-23T07:23:25;99641.56;;;25.52;98.25
21545;BME280;10933;50.754;11.508;2022-07-23T07:25:51;99639.59;;;27.09;85.74
21545;BME280;10933;50.754;11.508;2022-07-23T07:28:16;99642.38;;;24.55;100.00
21545;BME280;10933;50.754;11.508;2022-07-23T07:30:42;99642.50;;;26.25;85.92
21545;BME280;10933;50.754;11.508;2022-07-23T07:33:08;99642.13;;;26.10;85.29
21545;BME280;10933;50.754;11.508;2022-07-23T07:35:34;99634.63;;;23.62;95.27
21545;BME280;10933;50.754;11.508;2022-07-23T07:38:00;99633.34;;;24.91;98.16
21545;BME280;10933;50.754;11.508;2022-07-23T07:40:27;99646.72;;;25.78;85.88
21545;BME280;10933;50.754;11.508;2022-07-23T07:42:54;99638.59;;;22.84;100.00
21545;BME280;10933;50.754;11.508;2022-07-23T07:45:23;99632.41;;;23.76;100.00
21545;BME280;10933;50.754;11.508;2022-07-23T07:47:51;99626.53;;;23.57;100.00
21545;BME280;10933;50.754;11.508;2022-07-23T07:50:20;99635.81;;;23.73;100.00
21545;BME280;10933;50.754;11.508;2022-07-23T07:52:46;99646.69;;;25.26;98.40
21545;BME280;10933;50.754;11.508;2022-07-23T07:55:13;99657.50;;;26.24;87.68
21545;BME280;10933;50.754;11.508;2022-07-23T07:57:39;99657.41;;;26.80;83.50
21545;BME280;10933;50.754;11.508;2022-07-23T08:00:08;99651.97;;;26.24;80.94
21545;BME280;10933;50.754;11.508;2022-07-23T08:02:49;99656.66;;;27.11;73.45
21545;BME280;10933;50.754;11.508;2022-07-23T08:05:23;99650.69;;;23.01;100.00
21545;BME280;10933;50.754;11.508;2022-07-23T08:07:49;99654.97;;;25.91;87.97
21545;BME280;10933;50.754;11.508;2022-07-23T08:10:16;99653.56;;;25.44;87.08
21545;BME280;10933;50.754;11.508;2022-07-23T08:12:45;99649.34;;;24.41;97.37
21545;BME280;10933;50.754;11.508;2022-07-23T08:15:14;99652.19;;;24.32;99.41
21545;BME280;10933;50.754;11.508;2022-07-23T08:17:42;99651.69;;;25.73;88.66
21545;BME280;10933;50.754;11.508;2022-07-23T08:20:10;99653.53;;;22.66;100.00
21545;BME280;10933;50.754;11.508;2022-07-23T08:22:52;99652.03;;;21.96;100.00
21545;BME280;10933;50.754;11.508;2022-07-23T08:25:32;99653.78;;;23.79;100.00
21545;BME280;10933;50.754;11.508;2022-07-23T08:28:01;99664.25;;;24.06;100.00
21545;BME280;10933;50.754;11.508;2022-07-23T08:30:28;99662.81;;;25.89;95.62
21545;BME280;10933;50.754;11.508;2022-07-23T08:32:58;99665.09;;;24.40;96.09
21545;BME280;10933;50.754;11.508;2022-07-23T08:35:36;99667.31;;;26.65;83.43
21545;BME280;10933;50.754;11.508;2022-07-23T08:38:09;99656.78;;;25.46;92.28
21545;BME280;10933;50.754;11.508;2022-07-23T08:40:42;99655.91;;;27.14;80.50
21545;BME280;10933;50.754;11.508;2022-07-23T08:43:19;99647.78;;;26.02;87.65
21545;BME280;10933;50.754;11.508;2022-07-23T08:45:48;99641.13;;;24.77;93.73
21545;BME280;10933;50.754;11.508;2022-07-23T08:48:20;99633.47;;;23.12;100.00
21545;BME280;10933;50.754;11.508;2022-07-23T08:50:54;99642.91;;;25.06;98.54
21545;BME280;10933;50.754;11.508;2022-07-23T08:53:22;99647.41;;;25.75;91.00
21545;BME280;10933;50.754;11.508;2022-07-23T08:55:54;99649.91;;;24.91;90.27
21545;BME280;10933;50.754;11.508;2022-07-23T08:58:21;99649.75;;;23.47;100.00
21545;BME280;10933;50.754;11.508;2022-07-23T09:00:48;99650.28;;;24.45;98.66
21545;BME280;10933;50.754;11.508;2022-07-23T09:03:20;99662.00;;;24.21;100.00
21545;BME280;10933;50.754;11.508;2022-07-23T09:05:47;99661.72;;;23.22;100.00
21545;BME280;10933;50.754;11.508;2022-07-23T09:08:17;99654.88;;;22.98;100.00
21545;BME280;10933;50.754;11.508;2022-07-23T09:11:02;99654.75;;;23.54;100.00
21545;BME280;10933;50.754;11.508;2022-07-23T09:13:38;99661.72;;;23.22;100.00
21545;BME280;10933;50.754;11.508;2022-07-23T09:16:17;99666.88;;;24.03;100.00
21545;BME280;10933;50.754;11.508;2022-07-23T09:18:53;99676.41;;;24.72;99.44
21545;BME280;10933;50.754;11.508;2022-07-23T09:21:34;99668.84;;;24.81;99.88
21545;BME280;10933;50.754;11.508;2022-07-23T09:29:25;99667.94;;;23.10;100.00
21545;BME280;10933;50.754;11.508;2022-07-23T09:32:02;99667.31;;;23.13;100.00
21545;BME280;10933;50.754;11.508;2022-07-23T09:34:36;99673.84;;;22.10;100.00
21545;BME280;10933;50.754;11.508;2022-07-23T09:37:18;99671.72;;;22.50;100.00
21545;BME280;10933;50.754;11.508;2022-07-23T09:39:47;99661.38;;;24.36;100.00
21545;BME280;10933;50.754;11.508;2022-07-23T09:42:25;99673.25;;;24.16;98.05
21545;BME280;10933;50.754;11.508;2022-07-23T09:44:57;99677.81;;;25.63;93.43
21545;BME280;10933;50.754;11.508;2022-07-23T09:47:27;99669.13;;;27.36;79.68
21545;BME280;10933;50.754;11.508;2022-07-23T09:50:07;99663.09;;;27.85;76.62
21545;BME280;10933;50.754;11.508;2022-07-23T09:52:47;99672.63;;;26.42;86.54
21545;BME280;10933;50.754;11.508;2022-07-23T09:55:15;99672.66;;;26.02;84.22
21545;BME280;10933;50.754;11.508;2022-07-23T09:57:42;99676.38;;;30.05;67.87
21545;BME280;10933;50.754;11.508;2022-07-23T10:00:12;99676.34;;;28.53;69.14
21545;BME280;10933;50.754;11.508;2022-07-23T10:02:39;99669.69;;;27.10;75.14
21545;BME280;10933;50.754;11.508;2022-07-23T10:05:06;99676.81;;;27.27;73.23
21545;BME280;10933;50.754;11.508;2022-07-23T10:07:37;99670.59;;;28.62;68.65
21545;BME280;10933;50.754;11.508;2022-07-23T10:10:04;99666.44;;;27.94;69.81
21545;BME280;10933;50.754;11.508;2022-07-23T10:12:32;99676.22;;;28.88;66.77
21545;BME280;10933;50.754;11.508;2022-07-23T10:15:10;99664.81;;;26.76;75.88
21545;BME280;10933;50.754;11.508;2022-07-23T10:17:37;99675.13;;;25.91;81.61
21545;BME280;10933;50.754;11.508;2022-07-23T10:20:04;99673.00;;;26.40;79.40
21545;BME280;10933;50.754;11.508;2022-07-23T10:22:49;99671.84;;;27.87;70.80
21545;BME280;10933;50.754;11.508;2022-07-23T10:25:32;99667.00;;;28.61;68.95
21545;BME280;10933;50.754;11.508;2022-07-23T10:31:18;99679.13;;;32.65;51.05
21545;BME280;10933;50.754;11.508;2022-07-23T10:34:02;99668.06;;;28.14;65.21
21545;BME280;10933;50.754;11.508;2022-07-23T10:36:57;99669.66;;;26.35;72.44
21545;BME280;10933;50.754;11.508;2022-07-23T10:39:34;99662.31;;;25.99;77.54
21545;BME280;10933;50.754;11.508;2022-07-23T10:42:15;99670.13;;;25.69;87.77
21545;BME280;10933;50.754;11.508;2022-07-23T10:44:45;99667.09;;;24.76;94.10
21545;BME280;10933;50.754;11.508;2022-07-23T10:47:26;99669.47;;;23.99;98.82
21545;BME280;10933;50.754;11.508;2022-07-23T10:50:27;99672.25;;;26.16;92.18
21545;BME280;10933;50.754;11.508;2022-07-23T10:53:17;99669.66;;;25.67;92.81
21545;BME280;10933;50.754;11.508;2022-07-23T10:55:51;99676.38;;;27.09;85.69
21545;BME280;10933;50.754;11.508;2022-07-23T10:58:25;99670.47;;;25.79;91.46
21545;BME280;10933;50.754;11.508;2022-07-23T11:01:38;99671.09;;;25.89;93.82
21545;BME280;10933;50.754;11.508;2022-07-23T11:04:06;99673.03;;;26.72;86.47
21545;BME280;10933;50.754;11.508;2022-07-23T11:09:43;99674.34;;;26.19;90.47
21545;BME280;10933;50.754;11.508;2022-07-23T11:17:34;99678.63;;;25.76;90.26
21545;BME280;10933;50.754;11.508;2022-07-23T11:25:29;99661.50;;;25.58;94.51
21545;BME280;10933;50.754;11.508;2022-07-23T11:28:08;99659.53;;;25.71;92.16
21545;BME280;10933;50.754;11.508;2022-07-23T11:30:47;99672.56;;;25.34;92.09
21545;BME280;10933;50.754;11.508;2022-07-23T11:35:45;99679.69;;;27.15;85.09
21545;BME280;10933;50.754;11.508;2022-07-23T11:38:18;99670.44;;;26.63;84.82
21545;BME280;10933;50.754;11.508;2022-07-23T11:40:48;99665.75;;;24.94;99.30
21545;BME280;10933;50.754;11.508;2022-07-23T11:43:14;99662.38;;;24.77;100.00
21545;BME280;10933;50.754;11.508;2022-07-23T11:45:49;99671.16;;;24.79;100.00
21545;BME280;10933;50.754;11.508;2022-07-23T11:48:29;99666.09;;;24.81;100.00
21545;BME280;10933;50.754;11.508;2022-07-23T11:50:57;99661.19;;;24.41;100.00
21545;BME280;10933;50.754;11.508;2022-07-23T11:53:32;99662.69;;;24.18;100.00
21545;BME280;10933;50.754;11.508;2022-07-23T11:56:10;99669.06;;;25.61;100.00
21545;BME280;10933;50.754;11.508;2022-07-23T11:58:38;99669.84;;;24.76;100.00
21545;BME280;10933;50.754;11.508;2022-07-23T12:01:05;99666.44;;;24.79;100.00
21545;BME280;10933;50.754;11.508;2022-07-23T12:03:31;99670.28;;;26.56;98.89
21545;BME280;10933;50.754;11.508;2022-07-23T12:05:58;99667.03;;;25.98;94.48
21545;BME280;10933;50.754;11.508;2022-07-23T12:08:25;99660.53;;;24.56;100.00
21545;BME280;10933;50.754;11.508;2022-07-23T12:10:51;99660.38;;;24.20;100.00
21545;BME280;10933;50.754;11.508;2022-07-23T12:13:19;99663.44;;;24.39;100.00
21545;BME280;10933;50.754;11.508;2022-07-23T12:15:53;99662.91;;;25.15;100.00
21545;BME280;10933;50.754;11.508;2022-07-23T12:18:26;99672.16;;;26.68;98.93
21545;BME280;10933;50.754;11.508;2022-07-23T12:20:56;99668.38;;;26.45;94.59
21545;BME280;10933;50.754;11.508;2022-07-23T12:23:25;99671.09;;;26.88;90.62
21545;BME280;10933;50.754;11.508;2022-07-23T12:25:52;99653.91;;;25.55;100.00
21545;BME280;10933;50.754;11.508;2022-07-23T12:28:31;99652.50;;;24.88;100.00
21545;BME280;10933;50.754;11.508;2022-07-23T12:31:03;99652.41;;;25.98;100.00
21545;BME280;10933;50.754;11.508;2022-07-23T12:33:39;99659.19;;;25.72;100.00
21545;BME280;10933;50.754;11.508;2022-07-23T12:36:07;99661.41;;;25.95;100.00
21545;BME280;10933;50.754;11.508;2022-07-23T12:38:49;99650.56;;;26.02;97.24
21545;BME280;10933;50.754;11.508;2022-07-23T12:41:16;99644.84;;;25.95;98.40
21545;BME280;10933;50.754;11.508;2022-07-23T12:43:45;99647.75;;;26.14;93.84
21545;BME280;10933;50.754;11.508;2022-07-23T12:46:21;99644.44;;;25.68;100.00
21545;BME280;10933;50.754;11.508;2022-07-23T12:51:26;99647.84;;;26.46;95.60
21545;BME280;10933;50.754;11.508;2022-07-23T12:54:04;99649.09;;;25.28;100.00
21545;BME280;10933;50.754;11.508;2022-07-23T12:56:34;99651.72;;;24.30;100.00
21545;BME280;10933;50.754;11.508;2022-07-23T13:01:34;99650.84;;;25.20;100.00
21545;BME280;10933;50.754;11.508;2022-07-23T13:04:20;99648.16;;;24.99;100.00
21545;BME280;10933;50.754;11.508;2022-07-23T13:06:56;99649.75;;;25.00;100.00
21545;BME280;10933;50.754;11.508;2022-07-23T13:09:29;99644.94;;;24.85;100.00
21545;BME280;10933;50.754;11.508;2022-07-23T13:11:57;99652.28;;;24.81;100.00
21545;BME280;10933;50.754;11.508;2022-07-23T13:14:24;99654.03;;;25.34;100.00
21545;BME280;10933;50.754;11.508;2022-07-23T13:16:53;99664.75;;;26.56;97.32
21545;BME280;10933;50.754;11.508;2022-07-23T13:19:19;99657.59;;;26.71;91.56